createdAt,value
2023-08-21T00:03:16.718Z,169947.97
2023-08-21T00:13:20.102Z,170001.31
2023-08-21T00:23:24.493Z,169932.00
2023-08-21T00:33:27.470Z,169878.66
2023-08-21T00:43:31.914Z,169813.28
2023-08-21T00:53:35.402Z,169790.59
2023-08-21T01:03:39.763Z,169781.31
2023-08-21T01:13:54.802Z,169786.59
2023-08-21T01:23:59.215Z,169751.94
2023-08-21T01:34:06.520Z,169714.66
2023-08-21T01:44:10.892Z,169674.66
2023-08-21T01:54:13.952Z,169660.03
2023-08-21T02:04:18.416Z,169597.34
2023-08-21T02:14:21.529Z,169568.03
2023-08-21T02:24:25.883Z,169549.38
2023-08-21T02:34:28.959Z,169498.78
2023-08-21T02:44:33.327Z,169445.53
2023-08-21T02:54:36.292Z,169396.19
2023-08-21T03:04:40.767Z,169357.56
2023-08-21T03:14:44.009Z,169326.94
2023-08-21T03:24:48.369Z,169296.31
2023-08-21T03:34:51.493Z,169296.31
2023-08-21T03:44:57.541Z,169285.69
2023-08-21T03:55:01.211Z,169251.06
2023-08-21T04:05:06.900Z,169201.78
2023-08-21T04:15:11.327Z,169140.56
2023-08-21T04:25:15.574Z,169135.22
2023-08-21T04:35:18.669Z,169193.81
2023-08-21T04:45:23.115Z,169249.72
2023-08-21T04:55:26.323Z,169299.00
2023-08-21T05:05:30.865Z,169338.91
2023-08-21T05:15:34.171Z,169330.94
2023-08-21T05:25:39.989Z,169328.28
2023-08-21T05:35:43.663Z,169397.53
2023-08-21T05:45:49.076Z,169494.78
2023-08-21T05:55:52.344Z,169518.78
2023-08-21T06:05:56.798Z,169565.41
2023-08-21T06:15:59.921Z,169621.34
2023-08-21T06:26:05.923Z,169700.03
2023-08-21T06:36:09.053Z,169775.97
2023-08-21T06:46:13.552Z,169885.28
2023-08-21T06:56:18.659Z,170002.63
2023-08-21T07:06:23.016Z,170206.72
2023-08-21T07:16:27.582Z,170280.09
2023-08-21T07:26:32.271Z,170346.84
2023-08-21T07:36:35.621Z,170408.22
2023-08-21T07:46:40.049Z,170493.63
2023-08-21T07:56:43.075Z,170581.81
2023-08-21T08:06:47.497Z,170706.00
2023-08-21T08:16:50.481Z,170864.91
2023-08-21T08:26:55.257Z,171007.91
2023-08-21T08:36:58.194Z,171126.91
2023-08-21T08:47:03.278Z,171247.16
2023-08-21T08:57:06.576Z,171295.34
2023-08-21T09:07:12.174Z,171267.25
2023-08-21T09:17:15.994Z,171429.03
2023-08-21T09:27:20.853Z,171351.50
2023-08-21T09:37:30.806Z,171379.53
2023-08-21T09:47:36.154Z,171386.25
2023-08-21T09:57:39.721Z,171419.66
2023-08-21T10:07:46.221Z,171498.63
2023-08-21T10:17:49.271Z,171536.03
2023-08-21T10:27:55.223Z,171586.84
2023-08-21T10:38:12.554Z,171589.50
2023-08-21T10:48:16.900Z,171648.44
2023-08-21T10:58:19.906Z,171648.44
2023-08-21T11:08:24.668Z,171740.72
2023-08-21T11:18:33.204Z,171722.00
2023-08-21T11:39:06.333Z,171898.66
2023-08-21T11:49:11.879Z,171707.28
2023-08-21T11:59:24.738Z,171795.66
2023-08-21T12:09:29.257Z,171784.91
2023-08-21T12:19:34.822Z,171855.84
2023-08-21T12:29:47.759Z,172059.31
2023-08-21T12:39:51.830Z,172100.84
2023-08-21T12:50:04.618Z,171912.06
2023-08-21T13:00:12.776Z,172059.31
2023-08-21T13:10:18.725Z,172139.69
2023-08-21T13:20:24.637Z,172181.19
2023-08-21T13:30:34.274Z,172108.88
2023-08-21T13:40:37.805Z,172216.03
2023-08-21T13:50:51.447Z,172333.88
2023-08-21T14:00:54.889Z,172151.72
2023-08-21T14:11:04.278Z,172087.41
2023-08-21T14:21:14.811Z,172265.59
2023-08-21T14:31:25.260Z,172490.63
2023-08-21T14:41:31.882Z,172600.56
2023-08-21T14:51:41.320Z,172336.56
2023-08-21T15:01:48.979Z,172467.84
2023-08-21T15:12:00.231Z,172441.09
2023-08-21T15:22:04.524Z,172316.47
2023-08-21T15:32:17.362Z,172195.91
2023-08-21T15:42:21.041Z,172119.63
2023-08-21T15:52:40.721Z,171976.34
2023-08-21T16:02:44.839Z,171950.91
2023-08-21T16:12:49.453Z,171893.31
2023-08-21T16:22:54.326Z,171850.50
2023-08-21T16:33:05.843Z,171755.44
2023-08-21T16:43:16.748Z,171734.03
2023-08-21T16:53:27.856Z,171669.84
2023-08-21T17:03:34.584Z,171613.66
2023-08-21T17:13:46.461Z,171602.94
2023-08-21T17:23:49.598Z,171581.50
2023-08-21T17:34:00.567Z,171506.63
2023-08-21T17:44:07.416Z,171394.25
2023-08-21T17:54:18.989Z,171346.13
2023-08-21T18:04:22.988Z,171251.19
2023-08-21T18:14:32.849Z,171154.94
2023-08-21T18:24:39.559Z,171084.09
2023-08-21T18:34:48.827Z,170989.19
2023-08-21T18:44:58.473Z,170894.34
2023-08-21T18:55:03.694Z,170808.81
2023-08-21T19:05:07.750Z,170702.00
2023-08-21T19:15:12.886Z,170623.16
2023-08-21T19:25:16.024Z,170543.09
2023-08-21T19:35:20.660Z,170472.28
2023-08-21T19:45:23.697Z,170413.56
2023-08-21T19:55:28.352Z,170334.84
2023-08-21T20:05:31.592Z,170264.09
2023-08-21T20:15:36.432Z,170208.09
2023-08-21T20:25:39.512Z,170157.34
2023-08-21T20:35:43.948Z,170122.69
2023-08-21T20:45:47.208Z,170071.97
2023-08-21T20:55:51.553Z,170010.59
2023-08-21T21:05:55.512Z,169965.31
2023-08-21T21:15:59.666Z,169924.00
2023-08-21T21:26:03.721Z,169870.66
2023-08-21T21:36:09.282Z,169822.63
2023-08-21T21:46:26.415Z,169777.31
2023-08-21T21:56:31.157Z,169743.97
2023-08-21T22:06:39.861Z,169764.00
2023-08-21T22:16:44.206Z,169778.63
2023-08-21T22:26:47.226Z,169773.28
2023-08-21T22:36:54.331Z,169758.66
2023-08-21T22:46:57.327Z,169735.97
2023-08-21T22:57:02.020Z,169714.66
2023-08-21T23:07:05.532Z,169672.03
2023-08-21T23:17:09.941Z,169642.72
2023-08-21T23:27:12.913Z,169625.34
2023-08-21T23:37:17.526Z,169605.34
2023-08-21T23:47:20.522Z,169597.34
2023-08-21T23:57:24.960Z,169600.03
